Terminal Aerodrome Forecast
Issued by NWS Austin/San Antonio, TX

Home | Current Version | Previous Version | Text Only | Print | Product List | Glossary On
Versions: 1 2 3 4 5 6 7 8 9 10 11 12 13 14
000
FTUS44 KEWX 291100 RRA
TAFSAT
TAF
KSAT 291140Z 2912/3018 05004KT P6SM BKN012
     FM291600 12008KT P6SM BKN035
      TEMPO 2916/2920 VRB20KT 4SM TSRA BKN030CB
     FM292000 12012KT P6SM BKN050
     FM300200 13007KT P6SM BKN030
     FM300700 VRB02KT P6SM BKN020=

USA.gov is the U.S. government's official web portal to all federal, state and local government web resources and services.